createdAt,value
2022-08-17T00:01:51.238Z,9.93
2022-08-17T00:04:19.888Z,12.30
2022-08-17T00:06:49.044Z,10.23
2022-08-17T00:09:18.505Z,10.70
2022-08-17T00:12:41.694Z,10.90
2022-08-17T00:14:33.644Z,13.83
2022-08-17T00:17:00.524Z,11.83
2022-08-17T00:19:27.884Z,12.80
2022-08-17T00:22:34.704Z,12.97
2022-08-17T00:24:46.378Z,13.73
2022-08-17T00:27:13.158Z,12.70
2022-08-17T00:29:39.957Z,12.43
2022-08-17T00:33:14.350Z,12.50
2022-08-17T00:34:53.753Z,11.17
2022-08-17T00:37:20.513Z,12.73
2022-08-17T00:39:47.396Z,12.67
2022-08-17T00:42:19.029Z,13.80
2022-08-17T00:44:45.874Z,11.03
2022-08-17T00:47:12.684Z,11.87
2022-08-17T00:49:39.556Z,12.47
2022-08-17T00:52:15.607Z,14.20
2022-08-17T00:54:45.486Z,10.83
2022-08-17T00:57:30.023Z,12.03
2022-08-17T01:00:03.015Z,13.47
2022-08-17T01:02:34.978Z,12.03
2022-08-17T01:05:14.700Z,12.47
2022-08-17T01:07:42.790Z,14.03
2022-08-17T01:10:59.139Z,13.67
2022-08-17T01:12:59.932Z,17.40
2022-08-17T01:15:27.169Z,12.97
2022-08-17T01:17:54.083Z,13.47
2022-08-17T01:20:20.959Z,14.43
2022-08-17T01:22:47.815Z,13.07
2022-08-17T01:25:15.381Z,14.27
2022-08-17T01:27:43.010Z,12.03
2022-08-17T01:30:56.784Z,13.00
2022-08-17T01:32:59.645Z,11.80
2022-08-17T01:35:26.492Z,12.07
2022-08-17T01:37:53.328Z,12.37
2022-08-17T01:40:33.668Z,12.50
2022-08-17T01:43:05.900Z,12.83
2022-08-17T01:45:38.614Z,13.40
2022-08-17T01:48:05.769Z,12.90
2022-08-17T01:50:35.217Z,12.83
2022-08-17T01:53:15.505Z,17.07
2022-08-17T01:56:07.843Z,13.33
2022-08-17T01:58:35.412Z,12.80
2022-08-17T02:01:03.512Z,14.73
2022-08-17T02:03:31.946Z,14.10
2022-08-17T02:05:59.280Z,13.70
2022-08-17T02:08:38.934Z,16.13
2022-08-17T02:11:16.925Z,15.37
2022-08-17T02:13:45.661Z,15.60
2022-08-17T02:16:13.048Z,14.70
2022-08-17T02:18:40.475Z,16.83
2022-08-17T02:21:07.900Z,16.60
2022-08-17T02:23:41.595Z,16.93
2022-08-17T02:26:08.543Z,16.30
2022-08-17T02:28:51.038Z,16.43
2022-08-17T02:31:18.362Z,15.70
2022-08-17T02:33:45.137Z,16.27
2022-08-17T02:36:27.338Z,15.20
2022-08-17T02:38:54.329Z,16.13
2022-08-17T02:41:21.109Z,17.00
2022-08-17T02:43:48.061Z,15.47
2022-08-17T02:46:14.823Z,16.10
2022-08-17T02:48:41.828Z,16.27
2022-08-17T02:51:09.148Z,16.80
2022-08-17T02:53:36.317Z,16.53
2022-08-17T02:56:03.459Z,16.37
2022-08-17T02:58:34.670Z,15.03
2022-08-17T03:01:04.927Z,16.70
2022-08-17T03:03:32.113Z,16.40
2022-08-17T03:05:58.893Z,16.10
2022-08-17T03:08:25.913Z,15.83
2022-08-17T03:10:53.250Z,16.50
2022-08-17T03:13:20.796Z,16.40
2022-08-17T03:15:48.724Z,17.97
2022-08-17T03:18:25.111Z,16.50
2022-08-17T03:20:55.200Z,19.60
2022-08-17T03:23:23.725Z,16.83
2022-08-17T03:25:53.288Z,17.77
2022-08-17T03:28:21.574Z,18.67
2022-08-17T03:30:48.390Z,19.00
2022-08-17T03:33:16.238Z,18.97
2022-08-17T03:35:43.373Z,19.20
2022-08-17T03:38:11.855Z,19.67
2022-08-17T03:40:58.504Z,19.23
2022-08-17T03:43:31.716Z,25.53
2022-08-17T03:46:28.528Z,19.93
2022-08-17T03:49:21.871Z,21.20
2022-08-17T03:52:07.343Z,22.23
2022-08-17T03:54:52.612Z,18.77
2022-08-17T03:57:21.113Z,18.43
2022-08-17T03:59:48.063Z,17.90
2022-08-17T04:02:24.313Z,17.50
2022-08-17T04:04:52.253Z,18.43
2022-08-17T04:07:20.929Z,18.77
2022-08-17T04:09:48.266Z,19.40
2022-08-17T04:12:17.615Z,19.30
2022-08-17T04:14:53.347Z,20.17
2022-08-17T04:17:25.149Z,20.47
2022-08-17T04:19:53.208Z,21.20
2022-08-17T04:22:32.896Z,20.73
2022-08-17T04:25:18.173Z,20.80
2022-08-17T04:27:44.987Z,21.00
2022-08-17T04:30:13.205Z,19.60
2022-08-17T04:33:07.214Z,20.10
2022-08-17T04:35:51.355Z,18.70
2022-08-17T04:38:21.067Z,17.90
2022-08-17T04:41:07.229Z,17.67
2022-08-17T04:43:34.718Z,17.90
2022-08-17T04:46:04.734Z,17.60
2022-08-17T04:48:37.065Z,18.60
2022-08-17T04:51:10.538Z,17.63
2022-08-17T04:53:40.066Z,18.53
2022-08-17T04:56:07.993Z,19.30
2022-08-17T04:58:48.485Z,18.20
2022-08-17T05:01:23.709Z,18.63
2022-08-17T05:03:53.429Z,18.67
2022-08-17T05:06:20.519Z,17.30
2022-08-17T05:08:48.045Z,19.70
2022-08-17T05:11:16.106Z,18.53
2022-08-17T05:13:43.921Z,19.53
2022-08-17T05:16:11.777Z,19.60
2022-08-17T05:18:39.126Z,18.50
2022-08-17T05:21:08.192Z,19.30
2022-08-17T05:23:43.124Z,19.00
2022-08-17T05:26:24.758Z,17.03
2022-08-17T05:29:00.475Z,18.37
2022-08-17T05:31:31.123Z,16.27
2022-08-17T05:33:58.568Z,18.37
2022-08-17T05:36:43.021Z,19.60
2022-08-17T05:39:16.507Z,17.90
2022-08-17T05:41:47.741Z,20.30
2022-08-17T05:44:15.159Z,18.03
2022-08-17T05:46:48.042Z,26.83
2022-08-17T05:49:17.961Z,17.77
2022-08-17T05:52:20.135Z,19.63
2022-08-17T05:55:11.780Z,25.47
2022-08-17T05:58:06.570Z,17.07
2022-08-17T06:01:11.552Z,17.27
2022-08-17T06:04:01.488Z,19.37
2022-08-17T06:06:58.086Z,17.57
2022-08-17T06:10:12.392Z,23.00
2022-08-17T06:13:09.770Z,21.40
2022-08-17T06:16:01.848Z,15.70
2022-08-17T06:18:39.153Z,15.30
2022-08-17T06:21:08.465Z,15.83
2022-08-17T06:23:43.303Z,15.97
2022-08-17T06:26:42.933Z,15.63
2022-08-17T06:29:33.488Z,16.15
2022-08-17T06:32:03.573Z,14.02
2022-08-17T06:34:31.507Z,14.87
2022-08-17T06:37:26.628Z,15.13
2022-08-17T06:40:21.793Z,14.77
2022-08-17T06:43:14.775Z,17.30
2022-08-17T06:45:54.251Z,18.85
2022-08-17T06:48:24.452Z,15.30
2022-08-17T06:51:00.131Z,14.73
2022-08-17T06:53:53.452Z,15.25
2022-08-17T06:56:53.919Z,14.43
2022-08-17T06:59:53.200Z,16.83
2022-08-17T07:03:02.278Z,18.15
2022-08-17T07:05:40.629Z,13.68
2022-08-17T07:08:38.094Z,14.98
2022-08-17T07:11:16.045Z,12.63
2022-08-17T07:14:03.295Z,12.30
2022-08-17T07:16:41.463Z,12.38
2022-08-17T07:19:10.922Z,16.42
2022-08-17T07:21:56.134Z,15.45
2022-08-17T07:24:39.407Z,13.95
2022-08-17T07:27:24.913Z,11.38
2022-08-17T07:29:56.995Z,18.10
2022-08-17T07:32:39.841Z,10.80
2022-08-17T07:35:19.891Z,10.23
2022-08-17T07:38:07.154Z,12.38
2022-08-17T07:41:01.918Z,12.52
2022-08-17T07:43:40.911Z,23.52
2022-08-17T07:46:35.204Z,17.83
2022-08-17T07:49:07.913Z,18.10
2022-08-17T07:51:51.005Z,14.40
2022-08-17T07:54:24.972Z,11.88
2022-08-17T07:56:54.228Z,9.75
2022-08-17T07:59:33.373Z,11.55
2022-08-17T08:02:17.740Z,7.70
2022-08-17T08:05:00.904Z,12.77
2022-08-17T08:07:34.822Z,9.23
2022-08-17T08:10:09.309Z,11.52
2022-08-17T08:12:42.429Z,8.18
2022-08-17T08:15:18.933Z,9.73
2022-08-17T08:17:55.745Z,7.25
2022-08-17T08:20:51.533Z,9.15
2022-08-17T08:23:44.788Z,9.65
2022-08-17T08:26:32.520Z,8.20
2022-08-17T08:29:05.163Z,13.13
2022-08-17T08:31:58.763Z,11.50
2022-08-17T08:35:02.926Z,6.50
2022-08-17T08:37:44.802Z,7.50
2022-08-17T08:40:42.901Z,7.93
2022-08-17T08:43:50.859Z,9.15
2022-08-17T08:46:35.389Z,8.55
2022-08-17T08:50:01.349Z,8.27
2022-08-17T08:53:06.430Z,12.82
2022-08-17T08:55:51.873Z,6.90
2022-08-17T08:58:41.647Z,15.50
2022-08-17T09:01:22.740Z,7.60
2022-08-17T09:04:25.557Z,7.07
2022-08-17T09:07:16.383Z,11.38
2022-08-17T09:09:59.379Z,12.05
2022-08-17T09:13:10.800Z,8.43
2022-08-17T09:15:45.352Z,8.52
2022-08-17T09:19:00.954Z,5.07
2022-08-17T09:21:45.778Z,9.23
2022-08-17T09:24:29.247Z,5.25
2022-08-17T09:27:48.044Z,5.03
2022-08-17T09:30:15.407Z,8.30
2022-08-17T09:32:49.922Z,12.10
2022-08-17T09:35:25.254Z,5.25
2022-08-17T09:38:22.218Z,6.70
2022-08-17T09:41:04.301Z,4.95
2022-08-17T09:43:53.626Z,6.90
2022-08-17T09:46:31.143Z,8.43
2022-08-17T09:49:09.735Z,5.28
2022-08-17T09:51:41.495Z,7.07
2022-08-17T09:54:39.124Z,7.75
2022-08-17T09:57:32.738Z,8.18
2022-08-17T10:00:11.085Z,6.65
2022-08-17T10:03:21.110Z,8.45
2022-08-17T10:05:56.513Z,5.13
2022-08-17T10:08:44.957Z,8.75
2022-08-17T10:11:51.957Z,11.15
2022-08-17T10:14:36.277Z,7.07
2022-08-17T10:17:23.087Z,5.97
2022-08-17T10:19:58.577Z,10.40
2022-08-17T10:22:58.611Z,7.38
2022-08-17T10:26:00.295Z,5.35
2022-08-17T10:28:32.534Z,8.88
2022-08-17T10:34:04.360Z,7.88
2022-08-17T10:36:58.919Z,11.95
2022-08-17T10:39:52.139Z,6.00
2022-08-17T10:42:34.797Z,5.22
2022-08-17T10:45:14.914Z,10.82
2022-08-17T10:48:08.323Z,8.57
2022-08-17T10:50:57.563Z,6.93
2022-08-17T10:53:33.139Z,5.07
2022-08-17T10:56:11.846Z,6.03
2022-08-17T10:58:45.684Z,13.20
2022-08-17T11:01:12.954Z,5.90
2022-08-17T11:03:58.261Z,6.25
2022-08-17T11:06:37.248Z,5.10
2022-08-17T11:09:19.930Z,5.18
2022-08-17T11:12:11.582Z,8.48
2022-08-17T11:15:10.979Z,5.53
2022-08-17T11:17:57.455Z,5.50
2022-08-17T11:20:24.351Z,6.18
2022-08-17T11:23:20.253Z,4.70
2022-08-17T11:26:01.880Z,10.27
2022-08-17T11:28:59.041Z,5.70
2022-08-17T11:31:40.452Z,5.10
2022-08-17T11:34:26.641Z,4.93
2022-08-17T11:37:26.025Z,7.97
2022-08-17T11:40:15.868Z,5.93
2022-08-17T11:42:53.345Z,5.57
2022-08-17T11:45:41.387Z,7.00
2022-08-17T11:48:49.846Z,10.40
2022-08-17T11:51:33.959Z,5.95
2022-08-17T11:57:26.897Z,7.53
2022-08-17T12:00:13.199Z,9.18
2022-08-17T12:02:47.783Z,8.05
2022-08-17T12:05:17.949Z,7.30
2022-08-17T12:08:04.035Z,7.35
2022-08-17T12:10:35.468Z,6.50
2022-08-17T12:13:14.238Z,6.10
2022-08-17T12:15:50.382Z,6.72
2022-08-17T12:18:33.663Z,37.25
2022-08-17T12:21:33.215Z,27.75
2022-08-17T12:24:24.488Z,17.52
2022-08-17T12:26:58.366Z,13.07
2022-08-17T12:29:38.500Z,17.15
2022-08-17T12:32:13.799Z,15.15
2022-08-17T12:34:42.608Z,12.57
2022-08-17T12:37:22.076Z,14.55
2022-08-17T12:39:59.448Z,14.32
2022-08-17T12:42:31.663Z,12.48
2022-08-17T12:44:58.998Z,12.00
2022-08-17T12:47:29.487Z,11.02
2022-08-17T12:50:28.984Z,12.57
2022-08-17T12:53:01.653Z,10.02
2022-08-17T12:55:35.208Z,10.60
2022-08-17T12:58:02.485Z,8.90
2022-08-17T13:00:33.191Z,8.23
2022-08-17T13:03:13.139Z,9.90
2022-08-17T13:05:42.913Z,8.48
2022-08-17T13:08:23.377Z,7.15
2022-08-17T13:10:59.641Z,6.88
2022-08-17T13:13:35.303Z,7.05
2022-08-17T13:16:05.809Z,7.72
2022-08-17T13:18:38.828Z,7.15
2022-08-17T13:21:11.343Z,6.97
2022-08-17T13:23:38.261Z,7.05
2022-08-17T13:26:15.712Z,6.47
2022-08-17T13:28:51.733Z,7.93
2022-08-17T13:31:32.919Z,6.07
2022-08-17T13:34:13.691Z,7.40
2022-08-17T13:36:41.607Z,7.90
2022-08-17T13:39:18.827Z,8.45
2022-08-17T13:41:47.025Z,6.65
2022-08-17T13:44:34.275Z,6.07
2022-08-17T13:47:02.843Z,6.32
2022-08-17T13:49:42.062Z,6.10
2022-08-17T13:52:48.813Z,5.75
2022-08-17T13:55:27.704Z,5.55
2022-08-17T13:58:04.110Z,5.30
2022-08-17T14:00:36.707Z,5.63
2022-08-17T14:03:05.020Z,5.72
2022-08-17T14:05:32.390Z,8.98
2022-08-17T14:08:02.525Z,4.45
2022-08-17T14:10:37.051Z,5.75
2022-08-17T14:13:12.599Z,4.78
2022-08-17T14:15:54.003Z,5.25
2022-08-17T14:18:42.023Z,6.93
2022-08-17T14:21:11.325Z,4.63
2022-08-17T14:23:38.629Z,4.78
2022-08-17T14:26:05.559Z,6.00
2022-08-17T14:28:32.350Z,6.63
2022-08-17T14:31:00.827Z,4.80
2022-08-17T14:33:29.161Z,6.00
2022-08-17T14:35:57.575Z,6.82
2022-08-17T14:38:24.836Z,4.85
2022-08-17T14:40:52.124Z,6.70
2022-08-17T14:43:20.485Z,6.60
2022-08-17T14:45:47.496Z,4.68
2022-08-17T14:48:14.295Z,4.55
2022-08-17T14:50:42.484Z,4.82
2022-08-17T14:53:11.565Z,7.82
2022-08-17T14:55:40.499Z,9.60
2022-08-17T14:58:08.987Z,6.88
2022-08-17T15:00:36.289Z,5.97
2022-08-17T15:03:03.513Z,6.50
2022-08-17T15:05:33.888Z,5.22
2022-08-17T15:08:02.324Z,4.75
2022-08-17T15:10:30.633Z,8.80
2022-08-17T15:12:58.250Z,5.72
2022-08-17T15:15:25.103Z,5.10
2022-08-17T15:17:51.910Z,5.38
2022-08-17T15:20:22.072Z,5.40
2022-08-17T15:22:59.039Z,5.95
2022-08-17T15:25:28.928Z,7.28
2022-08-17T15:27:56.043Z,5.60
2022-08-17T15:30:24.078Z,5.43
2022-08-17T15:32:55.282Z,4.50
2022-08-17T15:35:28.005Z,4.93
2022-08-17T15:37:57.509Z,6.32
2022-08-17T15:40:25.126Z,7.53
2022-08-17T15:42:52.035Z,11.52
2022-08-17T15:45:24.917Z,12.38
2022-08-17T15:47:52.822Z,19.88
2022-08-17T15:50:22.694Z,14.55
2022-08-17T15:52:56.062Z,12.90
2022-08-17T15:55:24.248Z,19.42
2022-08-17T15:57:52.148Z,15.32
2022-08-17T16:00:19.375Z,16.35
2022-08-17T16:03:14.042Z,16.17
2022-08-17T16:05:35.225Z,17.67
2022-08-17T16:08:02.055Z,25.35
2022-08-17T16:10:34.542Z,19.08
2022-08-17T16:13:03.904Z,21.52
2022-08-17T16:15:31.719Z,19.13
2022-08-17T16:17:58.709Z,18.50
2022-08-17T16:20:25.938Z,18.52
2022-08-17T16:22:54.236Z,20.23
2022-08-17T16:25:50.406Z,19.92
2022-08-17T16:28:16.540Z,21.70
2022-08-17T16:30:44.037Z,24.20
2022-08-17T16:33:11.908Z,24.38
2022-08-17T16:35:39.329Z,20.65
2022-08-17T16:38:07.249Z,19.10
2022-08-17T16:40:35.986Z,24.63
2022-08-17T16:43:03.881Z,20.52
2022-08-17T16:45:36.348Z,18.00
2022-08-17T16:48:03.779Z,19.95
2022-08-17T16:50:31.886Z,20.77
2022-08-17T16:53:17.409Z,25.05
2022-08-17T16:55:45.992Z,18.75
2022-08-17T16:58:13.121Z,19.60
2022-08-17T17:00:42.191Z,22.50
2022-08-17T17:03:19.645Z,22.08
2022-08-17T17:05:57.738Z,25.27
2022-08-17T17:08:30.427Z,24.67
2022-08-17T17:11:03.804Z,24.23
2022-08-17T17:13:39.482Z,24.88
2022-08-17T17:16:26.556Z,25.75
2022-08-17T17:19:10.480Z,27.38
2022-08-17T17:22:00.256Z,24.98
2022-08-17T17:24:47.041Z,26.45
2022-08-17T17:27:23.864Z,26.35
2022-08-17T17:30:09.856Z,25.33
2022-08-17T17:33:00.377Z,27.20
2022-08-17T17:35:34.598Z,27.15
2022-08-17T17:38:10.986Z,28.50
2022-08-17T17:40:50.204Z,31.05
2022-08-17T17:43:40.518Z,25.20
2022-08-17T17:46:27.797Z,27.25
2022-08-17T17:48:58.067Z,26.98
2022-08-17T17:51:58.176Z,25.77
2022-08-17T17:54:38.287Z,24.33
2022-08-17T17:57:28.772Z,25.38
2022-08-17T18:00:15.222Z,27.73
2022-08-17T18:02:52.237Z,26.08
2022-08-17T18:05:50.096Z,26.70
2022-08-17T18:08:31.981Z,26.23
2022-08-17T18:11:04.761Z,26.10
2022-08-17T18:13:43.361Z,25.55
2022-08-17T18:16:14.195Z,28.08
2022-08-17T18:18:44.712Z,26.90
2022-08-17T18:21:21.364Z,24.88
2022-08-17T18:23:57.966Z,28.13
2022-08-17T18:26:39.329Z,26.05
2022-08-17T18:29:55.085Z,26.58
2022-08-17T18:32:42.030Z,29.42
2022-08-17T18:35:08.745Z,25.52
2022-08-17T18:37:40.760Z,28.67
2022-08-17T18:40:16.928Z,25.70
2022-08-17T18:43:11.761Z,24.80
2022-08-17T18:45:46.494Z,24.67
2022-08-17T18:48:48.799Z,25.80
2022-08-17T18:51:41.820Z,27.33
2022-08-17T18:54:22.436Z,32.60
2022-08-17T18:56:50.412Z,24.60
2022-08-17T18:59:33.788Z,26.33
2022-08-17T19:02:22.377Z,26.45
2022-08-17T19:05:11.101Z,24.02
2022-08-17T19:07:47.949Z,25.27
2022-08-17T19:10:47.012Z,24.50
2022-08-17T19:13:31.388Z,26.48
2022-08-17T19:16:15.137Z,23.63
2022-08-17T19:18:59.982Z,26.02
2022-08-17T19:21:41.656Z,23.17
2022-08-17T19:24:11.805Z,23.98
2022-08-17T19:26:54.309Z,24.67
2022-08-17T19:29:32.180Z,26.30
2022-08-17T19:32:01.277Z,22.88
2022-08-17T19:34:34.073Z,23.95
2022-08-17T19:37:20.708Z,22.55
2022-08-17T19:40:08.428Z,22.83
2022-08-17T19:43:05.471Z,23.23
2022-08-17T19:45:39.743Z,23.52
2022-08-17T19:48:13.863Z,23.45
2022-08-17T19:51:04.470Z,26.00
2022-08-17T19:54:03.777Z,25.65
2022-08-17T19:56:47.570Z,25.20
2022-08-17T19:59:46.332Z,24.30
2022-08-17T20:02:22.231Z,24.13
2022-08-17T20:04:52.546Z,24.38
2022-08-17T20:07:25.737Z,25.10
2022-08-17T20:10:02.581Z,25.60
2022-08-17T20:12:51.828Z,25.02
2022-08-17T20:15:29.590Z,26.27
2022-08-17T20:17:59.913Z,24.05
2022-08-17T20:20:58.480Z,24.25
2022-08-17T20:23:36.315Z,23.83
2022-08-17T20:26:19.436Z,29.02
2022-08-17T20:29:14.459Z,25.00
2022-08-17T20:31:50.575Z,25.60
2022-08-17T20:34:33.634Z,26.95
2022-08-17T20:37:24.783Z,27.73
2022-08-17T20:39:52.709Z,26.17
2022-08-17T20:42:22.682Z,24.65
2022-08-17T20:44:52.923Z,25.60
2022-08-17T20:48:15.107Z,27.10
2022-08-17T20:50:43.969Z,25.73
2022-08-17T20:53:13.566Z,24.27
2022-08-17T20:55:51.409Z,26.52
2022-08-17T20:58:30.104Z,27.50
2022-08-17T21:00:58.798Z,26.67
2022-08-17T21:03:43.143Z,26.15
2022-08-17T21:06:19.493Z,26.85
2022-08-17T21:08:58.907Z,26.33
2022-08-17T21:11:58.213Z,27.30
2022-08-17T21:14:33.186Z,27.58
2022-08-17T21:17:12.117Z,29.52
2022-08-17T21:20:17.644Z,29.05
2022-08-17T21:23:15.977Z,30.70
2022-08-17T21:26:02.375Z,29.83
2022-08-17T21:29:00.793Z,32.43
2022-08-17T21:31:35.993Z,29.98
2022-08-17T21:34:24.467Z,34.97
2022-08-17T21:36:53.257Z,32.83
2022-08-17T21:39:40.059Z,33.65
2022-08-17T21:42:07.419Z,33.47
2022-08-17T21:44:42.030Z,32.83
2022-08-17T21:47:26.524Z,33.53
2022-08-17T21:49:56.916Z,34.17
2022-08-17T21:52:28.980Z,34.45
2022-08-17T21:55:02.450Z,34.45
2022-08-17T21:57:41.785Z,32.43
2022-08-17T22:00:30.258Z,34.03
2022-08-17T22:03:02.570Z,32.43
2022-08-17T22:05:36.317Z,34.30
2022-08-17T22:08:22.445Z,35.77
2022-08-17T22:10:59.212Z,35.00
2022-08-17T22:13:29.751Z,34.17
2022-08-17T22:16:27.940Z,36.10
2022-08-17T22:18:57.994Z,37.05
2022-08-17T22:21:25.793Z,37.67
2022-08-17T22:24:05.696Z,35.83
2022-08-17T22:27:00.127Z,37.00
2022-08-17T22:29:47.856Z,37.33
2022-08-17T22:32:43.586Z,36.57
2022-08-17T22:35:29.343Z,39.00
2022-08-17T22:37:57.380Z,38.50
2022-08-17T22:40:42.449Z,40.43
2022-08-17T22:43:12.649Z,39.17
2022-08-17T22:45:51.425Z,40.67
2022-08-17T22:48:27.267Z,39.90
2022-08-17T22:51:12.717Z,40.63
2022-08-17T22:54:33.670Z,43.53
2022-08-17T22:57:21.913Z,41.63
2022-08-17T22:59:54.750Z,44.57
2022-08-17T23:02:23.833Z,42.07
2022-08-17T23:05:18.780Z,44.33
2022-08-17T23:07:47.256Z,43.13
2022-08-17T23:10:14.385Z,39.30
2022-08-17T23:12:41.411Z,43.47
2022-08-17T23:15:15.007Z,47.20
2022-08-17T23:17:41.958Z,42.00
2022-08-17T23:20:12.485Z,41.57
2022-08-17T23:22:51.776Z,43.20
2022-08-17T23:25:33.649Z,42.53
2022-08-17T23:28:02.115Z,43.87
2022-08-17T23:30:31.487Z,42.40
2022-08-17T23:33:01.330Z,49.30
2022-08-17T23:35:40.052Z,43.20
2022-08-17T23:38:12.198Z,42.07
2022-08-17T23:40:40.089Z,44.90
2022-08-17T23:43:23.416Z,43.37
2022-08-17T23:45:55.279Z,43.50
2022-08-17T23:48:34.949Z,45.47
2022-08-17T23:51:05.891Z,46.83
2022-08-17T23:53:36.551Z,43.77
2022-08-17T23:56:06.904Z,47.53
2022-08-17T23:58:42.340Z,47.17
